<?xml version='1.0' encoding='UTF-8'?><gpx version="1.1" creator="JPX - https://github.com/jenetics/jpx" xmlns="http://www.topografix.com/GPX/1/1"><trk><trkseg><trkpt lat="45.7130027" lon="8.5237427"><ele>351.00000000000006</ele><time>2026-04-03T11:28:01.233Z</time></trkpt><trkpt lat="45.7130793" lon="8.5237737"><ele>351.0</ele><time>2026-04-03T11:28:05.054Z</time></trkpt><trkpt lat="45.7131491" lon="8.5238195"><ele>351.0</ele><time>2026-04-03T11:28:08.114Z</time></trkpt><trkpt lat="45.7131285" lon="8.523724"><ele>351.0</ele><time>2026-04-03T11:28:19.339Z</time></trkpt><trkpt lat="45.7130908" lon="8.52363"><ele>351.0</ele><time>2026-04-03T11:28:39.347Z</time></trkpt><trkpt lat="45.713072" lon="8.5235388"><ele>351.00000000000006</ele><time>2026-04-03T11:28:47.35Z</time></trkpt><trkpt lat="45.7130513" lon="8.5234348"><ele>351.0</ele><time>2026-04-03T11:28:51.375Z</time></trkpt><trkpt lat="45.7130264" lon="8.5233265"><ele>351.1666666666667</ele><time>2026-04-03T11:28:54.352Z</time></trkpt><trkpt lat="45.7130318" lon="8.5232149"><ele>351.3333333333333</ele><time>2026-04-03T11:28:57.352Z</time></trkpt><trkpt lat="45.7130622" lon="8.5231148"><ele>351.5</ele><time>2026-04-03T11:29:00.353Z</time></trkpt><trkpt lat="45.7131231" lon="8.5230712"><ele>351.66666666666663</ele><time>2026-04-03T11:29:05.356Z</time></trkpt><trkpt lat="45.7132076" lon="8.5230436"><ele>351.8333333333333</ele><time>2026-04-03T11:29:10.358Z</time></trkpt><trkpt lat="45.7132851" lon="8.5230002"><ele>352.0</ele><time>2026-04-03T11:29:13.359Z</time></trkpt><trkpt lat="45.7133703" lon="8.5229611"><ele>352.0</ele><time>2026-04-03T11:29:16.334Z</time></trkpt><trkpt lat="45.7134465" lon="8.5229723"><ele>352.0</ele><time>2026-04-03T11:29:18.36Z</time></trkpt><trkpt lat="45.7135118" lon="8.5229615"><ele>352.0</ele><time>2026-04-03T11:29:20.36Z</time></trkpt><trkpt lat="45.7135659" lon="8.5229071"><ele>352.0</ele><time>2026-04-03T11:29:23.362Z</time></trkpt><trkpt lat="45.7136301" lon="8.5228507"><ele>352.0</ele><time>2026-04-03T11:29:28.297Z</time></trkpt><trkpt lat="45.713675" lon="8.5227817"><ele>352.0</ele><time>2026-04-03T11:29:30.279Z</time></trkpt><trkpt lat="45.7137233" lon="8.5227183"><ele>352.0</ele><time>2026-04-03T11:29:32.279Z</time></trkpt><trkpt lat="45.7137783" lon="8.5226333"><ele>352.57142857142856</ele><time>2026-04-03T11:29:34.276Z</time></trkpt><trkpt lat="45.713835" lon="8.5225467"><ele>353.1428571428571</ele><time>2026-04-03T11:29:36.285Z</time></trkpt><trkpt lat="45.7138867" lon="8.522475"><ele>353.71428571428567</ele><time>2026-04-03T11:29:38.278Z</time></trkpt><trkpt lat="45.7139433" lon="8.5223983"><ele>354.2857142857143</ele><time>2026-04-03T11:29:41.274Z</time></trkpt><trkpt lat="45.7139883" lon="8.5223317"><ele>354.85714285714283</ele><time>2026-04-03T11:29:43.28Z</time></trkpt><trkpt lat="45.7140517" lon="8.5222467"><ele>355.4285714285714</ele><time>2026-04-03T11:29:46.278Z</time></trkpt><trkpt lat="45.7140983" lon="8.5221817"><ele>356.0</ele><time>2026-04-03T11:29:49.276Z</time></trkpt><trkpt lat="45.714165" lon="8.522095"><ele>356.6666666666667</ele><time>2026-04-03T11:29:54.278Z</time></trkpt><trkpt lat="45.714225" lon="8.522015"><ele>357.33333333333337</ele><time>2026-04-03T11:29:56.28Z</time></trkpt><trkpt lat="45.714285" lon="8.5219483"><ele>358.0</ele><time>2026-04-03T11:29:58.277Z</time></trkpt><trkpt lat="45.7143517" lon="8.5218633"><ele>358.6666666666667</ele><time>2026-04-03T11:30:01.277Z</time></trkpt><trkpt lat="45.714415" lon="8.5217883"><ele>359.3333333333333</ele><time>2026-04-03T11:30:04.275Z</time></trkpt><trkpt lat="45.7144783" lon="8.5217033"><ele>360.0</ele><time>2026-04-03T11:30:07.271Z</time></trkpt><trkpt lat="45.7145417" lon="8.521625"><ele>360.0</ele><time>2026-04-03T11:30:10.277Z</time></trkpt><trkpt lat="45.71459" lon="8.5215633"><ele>360.0</ele><time>2026-04-03T11:30:13.275Z</time></trkpt><trkpt lat="45.714635" lon="8.5214633"><ele>360.0</ele><time>2026-04-03T11:30:18.278Z</time></trkpt><trkpt lat="45.71462" lon="8.521365"><ele>360.0</ele><time>2026-04-03T11:30:21.275Z</time></trkpt><trkpt lat="45.714585" lon="8.5212717"><ele>360.0</ele><time>2026-04-03T11:30:24.278Z</time></trkpt><trkpt lat="45.714535" lon="8.5211733"><ele>360.0</ele><time>2026-04-03T11:30:27.276Z</time></trkpt><trkpt lat="45.7144867" lon="8.5210667"><ele>360.6666666666667</ele><time>2026-04-03T11:30:30.276Z</time></trkpt><trkpt lat="45.7144333" lon="8.5209667"><ele>361.3333333333333</ele><time>2026-04-03T11:30:33.28Z</time></trkpt><trkpt lat="45.71439" lon="8.5208983"><ele>362.0</ele><time>2026-04-03T11:30:35.278Z</time></trkpt><trkpt lat="45.7143383" lon="8.5207983"><ele>362.66666666666663</ele><time>2026-04-03T11:30:38.277Z</time></trkpt><trkpt lat="45.7142967" lon="8.520705"><ele>363.3333333333333</ele><time>2026-04-03T11:30:41.276Z</time></trkpt><trkpt lat="45.714245" lon="8.5206133"><ele>364.0</ele><time>2026-04-03T11:30:44.279Z</time></trkpt><trkpt lat="45.7141833" lon="8.5205233"><ele>364.0</ele><time>2026-04-03T11:30:47.278Z</time></trkpt><trkpt lat="45.714135" lon="8.5204317"><ele>364.0</ele><time>2026-04-03T11:30:50.279Z</time></trkpt><trkpt lat="45.7141033" lon="8.52034"><ele>364.0</ele><time>2026-04-03T11:30:54.277Z</time></trkpt><trkpt lat="45.71403" lon="8.5202817"><ele>364.0</ele><time>2026-04-03T11:30:59.279Z</time></trkpt><trkpt lat="45.7139683" lon="8.5202267"><ele>364.0</ele><time>2026-04-03T11:31:01.276Z</time></trkpt><trkpt lat="45.7139267" lon="8.5201467"><ele>364.0</ele><time>2026-04-03T11:31:03.274Z</time></trkpt><trkpt lat="45.713995" lon="8.5201583"><ele>364.0</ele><time>2026-04-03T11:31:13.277Z</time></trkpt><trkpt lat="45.71408" lon="8.52014"><ele>363.7142857142857</ele><time>2026-04-03T11:31:17.278Z</time></trkpt><trkpt lat="45.7141017" lon="8.52001"><ele>363.42857142857144</ele><time>2026-04-03T11:31:21.279Z</time></trkpt><trkpt lat="45.7140517" lon="8.51995"><ele>363.1428571428571</ele><time>2026-04-03T11:31:25.278Z</time></trkpt><trkpt lat="45.7140433" lon="8.52004"><ele>362.8571428571429</ele><time>2026-04-03T11:31:31.277Z</time></trkpt><trkpt lat="45.714045" lon="8.52014"><ele>362.57142857142856</ele><time>2026-04-03T11:31:35.277Z</time></trkpt><trkpt lat="45.7140783" lon="8.520055"><ele>362.2857142857143</ele><time>2026-04-03T11:31:44.277Z</time></trkpt><trkpt lat="45.7141" lon="8.5199467"><ele>362.0</ele><time>2026-04-03T11:31:47.276Z</time></trkpt><trkpt lat="45.7140617" lon="8.5200233"><ele>362.0</ele><time>2026-04-03T11:32:01.277Z</time></trkpt><trkpt lat="45.7140033" lon="8.5201117"><ele>362.0</ele><time>2026-04-03T11:32:05.277Z</time></trkpt><trkpt lat="45.7139917" lon="8.5202017"><ele>362.0</ele><time>2026-04-03T11:32:08.278Z</time></trkpt><trkpt lat="45.71398" lon="8.520305"><ele>362.0</ele><time>2026-04-03T11:32:13.272Z</time></trkpt><trkpt lat="45.7140383" lon="8.5203633"><ele>362.0</ele><time>2026-04-03T11:32:19.274Z</time></trkpt><trkpt lat="45.714095" lon="8.5203083"><ele>362.0</ele><time>2026-04-03T11:32:22.272Z</time></trkpt><trkpt lat="45.7141367" lon="8.5202383"><ele>362.0</ele><time>2026-04-03T11:32:24.271Z</time></trkpt><trkpt lat="45.7141817" lon="8.5201583"><ele>362.0</ele><time>2026-04-03T11:32:26.274Z</time></trkpt><trkpt lat="45.7142167" lon="8.5200733"><ele>362.0</ele><time>2026-04-03T11:32:28.274Z</time></trkpt><trkpt lat="45.71417" lon="8.52"><ele>362.0</ele><time>2026-04-03T11:32:31.272Z</time></trkpt><trkpt lat="45.7141067" lon="8.5200183"><ele>362.0</ele><time>2026-04-03T11:32:33.272Z</time></trkpt><trkpt lat="45.7140417" lon="8.5200417"><ele>362.0</ele><time>2026-04-03T11:32:35.273Z</time></trkpt><trkpt lat="45.7139583" lon="8.5200383"><ele>362.0</ele><time>2026-04-03T11:32:38.271Z</time></trkpt><trkpt lat="45.7138733" lon="8.52001"><ele>362.0</ele><time>2026-04-03T11:32:41.275Z</time></trkpt><trkpt lat="45.7138067" lon="8.519955"><ele>362.0</ele><time>2026-04-03T11:32:43.277Z</time></trkpt><trkpt lat="45.7137217" lon="8.5199367"><ele>362.0</ele><time>2026-04-03T11:32:57.272Z</time></trkpt><trkpt lat="45.71369" lon="8.5198367"><ele>362.0</ele><time>2026-04-03T11:33:01.274Z</time></trkpt><trkpt lat="45.7136733" lon="8.5197267"><ele>362.0</ele><time>2026-04-03T11:33:04.275Z</time></trkpt><trkpt lat="45.7136667" lon="8.519635"><ele>362.0</ele><time>2026-04-03T11:33:06.276Z</time></trkpt><trkpt lat="45.71367" lon="8.51954"><ele>362.0</ele><time>2026-04-03T11:33:08.275Z</time></trkpt><trkpt lat="45.7136667" lon="8.51942"><ele>361.83333333333337</ele><time>2026-04-03T11:33:11.275Z</time></trkpt><trkpt lat="45.713645" lon="8.5192983"><ele>361.6666666666667</ele><time>2026-04-03T11:33:14.276Z</time></trkpt><trkpt lat="45.7136283" lon="8.5191783"><ele>361.5</ele><time>2026-04-03T11:33:17.271Z</time></trkpt><trkpt lat="45.7136133" lon="8.5190583"><ele>361.3333333333333</ele><time>2026-04-03T11:33:20.272Z</time></trkpt><trkpt lat="45.7135917" lon="8.5189333"><ele>361.16666666666663</ele><time>2026-04-03T11:33:23.272Z</time></trkpt><trkpt lat="45.71357" lon="8.5188367"><ele>361.0</ele><time>2026-04-03T11:33:26.274Z</time></trkpt><trkpt lat="45.71355" lon="8.5187117"><ele>362.5</ele><time>2026-04-03T11:33:29.273Z</time></trkpt><trkpt lat="45.7135383" lon="8.5185967"><ele>364.0</ele><time>2026-04-03T11:33:32.274Z</time></trkpt><trkpt lat="45.7135233" lon="8.518465"><ele>365.5</ele><time>2026-04-03T11:33:35.27Z</time></trkpt><trkpt lat="45.71352" lon="8.51836"><ele>367.0</ele><time>2026-04-03T11:33:37.277Z</time></trkpt><trkpt lat="45.713515" lon="8.51826"><ele>368.5</ele><time>2026-04-03T11:33:39.283Z</time></trkpt><trkpt lat="45.713505" lon="8.5181583"><ele>370.0</ele><time>2026-04-03T11:33:41.275Z</time></trkpt><trkpt lat="45.713495" lon="8.51806"><ele>370.0</ele><time>2026-04-03T11:33:43.279Z</time></trkpt><trkpt lat="45.7134817" lon="8.5179483"><ele>370.0</ele><time>2026-04-03T11:33:46.277Z</time></trkpt><trkpt lat="45.713465" lon="8.5178533"><ele>370.0</ele><time>2026-04-03T11:33:49.28Z</time></trkpt><trkpt lat="45.7134183" lon="8.5177567"><ele>370.0</ele><time>2026-04-03T11:33:52.278Z</time></trkpt><trkpt lat="45.7133517" lon="8.5176783"><ele>370.0</ele><time>2026-04-03T11:33:55.275Z</time></trkpt><trkpt lat="45.7132733" lon="8.5176333"><ele>370.0</ele><time>2026-04-03T11:33:58.276Z</time></trkpt><trkpt lat="45.713185" lon="8.5176"><ele>370.16666666666663</ele><time>2026-04-03T11:34:01.273Z</time></trkpt><trkpt lat="45.713095" lon="8.5175667"><ele>370.3333333333333</ele><time>2026-04-03T11:34:04.278Z</time></trkpt><trkpt lat="45.713035" lon="8.5175383"><ele>370.5</ele><time>2026-04-03T11:34:06.276Z</time></trkpt><trkpt lat="45.71296" lon="8.517505"><ele>370.6666666666667</ele><time>2026-04-03T11:34:09.279Z</time></trkpt><trkpt lat="45.71288" lon="8.517475"><ele>370.83333333333337</ele><time>2026-04-03T11:34:12.276Z</time></trkpt><trkpt lat="45.7128117" lon="8.51744"><ele>371.0</ele><time>2026-04-03T11:34:15.277Z</time></trkpt><trkpt lat="45.7127483" lon="8.5173933"><ele>371.5</ele><time>2026-04-03T11:34:18.279Z</time></trkpt><trkpt lat="45.71267" lon="8.5173567"><ele>372.0</ele><time>2026-04-03T11:34:21.277Z</time></trkpt><trkpt lat="45.712595" lon="8.5173767"><ele>372.5</ele><time>2026-04-03T11:34:24.277Z</time></trkpt><trkpt lat="45.7125367" lon="8.5172833"><ele>373.0</ele><time>2026-04-03T11:34:28.273Z</time></trkpt><trkpt lat="45.7124933" lon="8.517175"><ele>373.5</ele><time>2026-04-03T11:34:31.28Z</time></trkpt><trkpt lat="45.7124333" lon="8.5171333"><ele>374.0</ele><time>2026-04-03T11:34:33.28Z</time></trkpt><trkpt lat="45.71237" lon="8.51705"><ele>374.0</ele><time>2026-04-03T11:34:36.278Z</time></trkpt><trkpt lat="45.712325" lon="8.51695"><ele>374.0</ele><time>2026-04-03T11:34:39.278Z</time></trkpt><trkpt lat="45.7122817" lon="8.5168483"><ele>374.0</ele><time>2026-04-03T11:34:42.279Z</time></trkpt><trkpt lat="45.7122483" lon="8.516755"><ele>374.0</ele><time>2026-04-03T11:34:45.272Z</time></trkpt><trkpt lat="45.7121767" lon="8.516695"><ele>374.0</ele><time>2026-04-03T11:34:48.279Z</time></trkpt><trkpt lat="45.7121117" lon="8.5166733"><ele>374.0</ele><time>2026-04-03T11:34:50.281Z</time></trkpt><trkpt lat="45.712035" lon="8.5166633"><ele>374.0</ele><time>2026-04-03T11:34:52.277Z</time></trkpt><trkpt lat="45.7119717" lon="8.5166167"><ele>374.0</ele><time>2026-04-03T11:34:54.275Z</time></trkpt><trkpt lat="45.711915" lon="8.5165183"><ele>374.0</ele><time>2026-04-03T11:34:56.278Z</time></trkpt><trkpt lat="45.71187" lon="8.516395"><ele>374.0</ele><time>2026-04-03T11:34:58.278Z</time></trkpt><trkpt lat="45.7118117" lon="8.5162717"><ele>374.0</ele><time>2026-04-03T11:35:00.277Z</time></trkpt><trkpt lat="45.711745" lon="8.5161483"><ele>373.5</ele><time>2026-04-03T11:35:02.279Z</time></trkpt><trkpt lat="45.7116633" lon="8.5160317"><ele>373.0</ele><time>2026-04-03T11:35:04.282Z</time></trkpt><trkpt lat="45.71157" lon="8.5159283"><ele>372.5</ele><time>2026-04-03T11:35:06.282Z</time></trkpt><trkpt lat="45.71148" lon="8.5158367"><ele>372.0</ele><time>2026-04-03T11:35:08.281Z</time></trkpt><trkpt lat="45.71143" lon="8.51569"><ele>372.0</ele><time>2026-04-03T11:35:10.281Z</time></trkpt><trkpt lat="45.71142" lon="8.5155233"><ele>372.0</ele><time>2026-04-03T11:35:12.278Z</time></trkpt><trkpt lat="45.7114583" lon="8.5153517"><ele>372.0</ele><time>2026-04-03T11:35:14.282Z</time></trkpt><trkpt lat="45.7114933" lon="8.5152683"><ele>372.0</ele><time>2026-04-03T11:35:15.278Z</time></trkpt><trkpt lat="45.71153" lon="8.5151867"><ele>372.0</ele><time>2026-04-03T11:35:16.281Z</time></trkpt><trkpt lat="45.7115583" lon="8.5151"><ele>372.0</ele><time>2026-04-03T11:35:17.28Z</time></trkpt><trkpt lat="45.7115667" lon="8.5149367"><ele>371.0</ele><time>2026-04-03T11:35:19.281Z</time></trkpt><trkpt lat="45.71152" lon="8.5147667"><ele>370.0</ele><time>2026-04-03T11:35:21.281Z</time></trkpt><trkpt lat="45.71149" lon="8.5146783"><ele>369.0</ele><time>2026-04-03T11:35:22.28Z</time></trkpt><trkpt lat="45.7114517" lon="8.5146033"><ele>368.0</ele><time>2026-04-03T11:35:23.274Z</time></trkpt><trkpt lat="45.7114017" lon="8.5145483"><ele>367.0</ele><time>2026-04-03T11:35:24.28Z</time></trkpt><trkpt lat="45.7112867" lon="8.5144833"><ele>366.0</ele><time>2026-04-03T11:35:26.283Z</time></trkpt><trkpt lat="45.7111767" lon="8.514475"><ele>365.8333333333333</ele><time>2026-04-03T11:35:28.277Z</time></trkpt><trkpt lat="45.71108" lon="8.5144733"><ele>365.6666666666667</ele><time>2026-04-03T11:35:30.279Z</time></trkpt><trkpt lat="45.7109933" lon="8.5144833"><ele>365.5</ele><time>2026-04-03T11:35:32.282Z</time></trkpt><trkpt lat="45.71096" lon="8.5145667"><ele>365.33333333333337</ele><time>2026-04-03T11:35:35.278Z</time></trkpt><trkpt lat="45.711035" lon="8.514585"><ele>365.1666666666667</ele><time>2026-04-03T11:35:37.278Z</time></trkpt><trkpt lat="45.7111317" lon="8.5145483"><ele>365.0</ele><time>2026-04-03T11:35:39.281Z</time></trkpt><trkpt lat="45.7112183" lon="8.514505"><ele>364.4</ele><time>2026-04-03T11:35:41.279Z</time></trkpt><trkpt lat="45.7113133" lon="8.51449"><ele>363.8</ele><time>2026-04-03T11:35:43.282Z</time></trkpt><trkpt lat="45.711405" lon="8.5144917"><ele>363.20000000000005</ele><time>2026-04-03T11:35:45.28Z</time></trkpt><trkpt lat="45.71149" lon="8.514485"><ele>362.6</ele><time>2026-04-03T11:35:47.279Z</time></trkpt><trkpt lat="45.7115583" lon="8.514475"><ele>362.0</ele><time>2026-04-03T11:35:49.278Z</time></trkpt><trkpt lat="45.7116983" lon="8.5144917"><ele>362.0</ele><time>2026-04-03T11:36:10.278Z</time></trkpt><trkpt lat="45.7117883" lon="8.514485"><ele>362.0</ele><time>2026-04-03T11:36:13.282Z</time></trkpt><trkpt lat="45.711855" lon="8.5144883"><ele>362.0</ele><time>2026-04-03T11:36:16.278Z</time></trkpt><trkpt lat="45.7119233" lon="8.5145067"><ele>362.0</ele><time>2026-04-03T11:36:19.281Z</time></trkpt><trkpt lat="45.712" lon="8.5145233"><ele>362.0</ele><time>2026-04-03T11:36:22.277Z</time></trkpt><trkpt lat="45.712075" lon="8.5145267"><ele>362.0</ele><time>2026-04-03T11:36:25.276Z</time></trkpt><trkpt lat="45.71216" lon="8.5145383"><ele>362.1428571428571</ele><time>2026-04-03T11:36:28.277Z</time></trkpt><trkpt lat="45.7122333" lon="8.514565"><ele>362.2857142857143</ele><time>2026-04-03T11:36:30.281Z</time></trkpt><trkpt lat="45.7122867" lon="8.51464"><ele>362.42857142857144</ele><time>2026-04-03T11:36:32.281Z</time></trkpt><trkpt lat="45.7123033" lon="8.5147433"><ele>362.57142857142856</ele><time>2026-04-03T11:36:34.281Z</time></trkpt><trkpt lat="45.7123467" lon="8.514835"><ele>362.7142857142857</ele><time>2026-04-03T11:36:36.275Z</time></trkpt><trkpt lat="45.7123483" lon="8.5149267"><ele>362.85714285714283</ele><time>2026-04-03T11:36:38.287Z</time></trkpt><trkpt lat="45.712285" lon="8.5148567"><ele>363.0</ele><time>2026-04-03T11:36:42.279Z</time></trkpt><trkpt lat="45.7123783" lon="8.5149083"><ele>363.6666666666667</ele><time>2026-04-03T11:36:47.279Z</time></trkpt><trkpt lat="45.7124033" lon="8.5150183"><ele>364.3333333333333</ele><time>2026-04-03T11:36:49.276Z</time></trkpt><trkpt lat="45.7123383" lon="8.5149317"><ele>365.0</ele><time>2026-04-03T11:36:53.279Z</time></trkpt><trkpt lat="45.712275" lon="8.5148433"><ele>365.66666666666663</ele><time>2026-04-03T11:36:55.278Z</time></trkpt><trkpt lat="45.712235" lon="8.5149133"><ele>366.3333333333333</ele><time>2026-04-03T11:36:58.278Z</time></trkpt><trkpt lat="45.7122833" lon="8.5150417"><ele>367.0</ele><time>2026-04-03T11:37:09.281Z</time></trkpt><trkpt lat="45.712355" lon="8.5150917"><ele>367.0</ele><time>2026-04-03T11:37:12.281Z</time></trkpt><trkpt lat="45.71243" lon="8.5151467"><ele>367.0</ele><time>2026-04-03T11:37:15.279Z</time></trkpt><trkpt lat="45.712485" lon="8.51521"><ele>367.0</ele><time>2026-04-03T11:37:18.279Z</time></trkpt><trkpt lat="45.7125433" lon="8.51527"><ele>367.0</ele><time>2026-04-03T11:37:20.281Z</time></trkpt><trkpt lat="45.7126117" lon="8.5153333"><ele>367.0</ele><time>2026-04-03T11:37:23.279Z</time></trkpt><trkpt lat="45.7126683" lon="8.5153983"><ele>367.0</ele><time>2026-04-03T11:37:27.278Z</time></trkpt><trkpt lat="45.7127283" lon="8.5154617"><ele>367.16666666666663</ele><time>2026-04-03T11:38:03.279Z</time></trkpt><trkpt lat="45.7127967" lon="8.5154233"><ele>367.3333333333333</ele><time>2026-04-03T11:38:05.281Z</time></trkpt><trkpt lat="45.7128633" lon="8.5153567"><ele>367.5</ele><time>2026-04-03T11:38:07.281Z</time></trkpt><trkpt lat="45.71293" lon="8.5152833"><ele>367.6666666666667</ele><time>2026-04-03T11:38:09.278Z</time></trkpt><trkpt lat="45.712995" lon="8.5152017"><ele>367.83333333333337</ele><time>2026-04-03T11:38:11.281Z</time></trkpt><trkpt lat="45.7130567" lon="8.5151233"><ele>368.0</ele><time>2026-04-03T11:38:13.278Z</time></trkpt><trkpt lat="45.713115" lon="8.515035"><ele>367.5</ele><time>2026-04-03T11:38:15.28Z</time></trkpt><trkpt lat="45.7131717" lon="8.514955"><ele>367.0</ele><time>2026-04-03T11:38:17.274Z</time></trkpt><trkpt lat="45.713225" lon="8.5148783"><ele>366.5</ele><time>2026-04-03T11:38:19.277Z</time></trkpt><trkpt lat="45.7132733" lon="8.5147983"><ele>366.0</ele><time>2026-04-03T11:38:21.281Z</time></trkpt><trkpt lat="45.7133183" lon="8.5147183"><ele>365.5</ele><time>2026-04-03T11:38:23.277Z</time></trkpt><trkpt lat="45.7133583" lon="8.5146483"><ele>365.0</ele><time>2026-04-03T11:38:25.283Z</time></trkpt><trkpt lat="45.7134133" lon="8.51455"><ele>365.00000000000006</ele><time>2026-04-03T11:38:28.279Z</time></trkpt><trkpt lat="45.71347" lon="8.5144433"><ele>365.0</ele><time>2026-04-03T11:38:31.28Z</time></trkpt><trkpt lat="45.7135083" lon="8.5143683"><ele>365.0</ele><time>2026-04-03T11:38:33.279Z</time></trkpt><trkpt lat="45.713545" lon="8.5142933"><ele>365.0</ele><time>2026-04-03T11:38:35.272Z</time></trkpt><trkpt lat="45.7135867" lon="8.5142133"><ele>365.0</ele><time>2026-04-03T11:38:37.278Z</time></trkpt><trkpt lat="45.7136317" lon="8.5141233"><ele>365.00000000000006</ele><time>2026-04-03T11:38:39.278Z</time></trkpt><trkpt lat="45.7136783" lon="8.5140333"><ele>365.0</ele><time>2026-04-03T11:38:41.28Z</time></trkpt><trkpt lat="45.713725" lon="8.51394"><ele>365.1666666666667</ele><time>2026-04-03T11:38:43.279Z</time></trkpt><trkpt lat="45.713765" lon="8.5138333"><ele>365.33333333333337</ele><time>2026-04-03T11:38:45.281Z</time></trkpt><trkpt lat="45.7138167" lon="8.513745"><ele>365.5</ele><time>2026-04-03T11:38:47.279Z</time></trkpt><trkpt lat="45.7138683" lon="8.513655"><ele>365.6666666666667</ele><time>2026-04-03T11:38:49.279Z</time></trkpt><trkpt lat="45.7139167" lon="8.513565"><ele>365.8333333333333</ele><time>2026-04-03T11:38:51.281Z</time></trkpt><trkpt lat="45.7139683" lon="8.5134733"><ele>366.0</ele><time>2026-04-03T11:38:53.28Z</time></trkpt><trkpt lat="45.7140167" lon="8.5133983"><ele>366.42857142857144</ele><time>2026-04-03T11:38:55.278Z</time></trkpt><trkpt lat="45.71406" lon="8.5133267"><ele>366.8571428571429</ele><time>2026-04-03T11:38:57.277Z</time></trkpt><trkpt lat="45.7141233" lon="8.5132417"><ele>367.2857142857143</ele><time>2026-04-03T11:39:00.279Z</time></trkpt><trkpt lat="45.714175" lon="8.513165"><ele>367.7142857142857</ele><time>2026-04-03T11:39:02.282Z</time></trkpt><trkpt lat="45.714235" lon="8.5131267"><ele>368.1428571428571</ele><time>2026-04-03T11:39:04.278Z</time></trkpt><trkpt lat="45.7142917" lon="8.513085"><ele>368.57142857142856</ele><time>2026-04-03T11:39:06.281Z</time></trkpt><trkpt lat="45.7143567" lon="8.51301"><ele>369.0</ele><time>2026-04-03T11:39:09.279Z</time></trkpt><trkpt lat="45.7144017" lon="8.512935"><ele>371.5</ele><time>2026-04-03T11:39:12.278Z</time></trkpt><trkpt lat="45.7144633" lon="8.512845"><ele>374.0</ele><time>2026-04-03T11:39:15.279Z</time></trkpt><trkpt lat="45.7145233" lon="8.512745"><ele>376.5</ele><time>2026-04-03T11:39:17.283Z</time></trkpt><trkpt lat="45.714565" lon="8.5126483"><ele>379.0</ele><time>2026-04-03T11:39:19.281Z</time></trkpt><trkpt lat="45.714595" lon="8.5125533"><ele>381.5</ele><time>2026-04-03T11:39:21.279Z</time></trkpt><trkpt lat="45.7146067" lon="8.5124633"><ele>384.0</ele><time>2026-04-03T11:39:23.278Z</time></trkpt><trkpt lat="45.7145633" lon="8.5123433"><ele>383.99999999999994</ele><time>2026-04-03T11:39:26.279Z</time></trkpt><trkpt lat="45.7145183" lon="8.512265"><ele>384.0</ele><time>2026-04-03T11:39:28.281Z</time></trkpt><trkpt lat="45.7144733" lon="8.512185"><ele>384.0</ele><time>2026-04-03T11:39:30.278Z</time></trkpt><trkpt lat="45.714425" lon="8.5121017"><ele>384.0</ele><time>2026-04-03T11:39:32.279Z</time></trkpt><trkpt lat="45.714385" lon="8.5120267"><ele>384.0</ele><time>2026-04-03T11:39:34.277Z</time></trkpt><trkpt lat="45.7143483" lon="8.511945"><ele>383.99999999999994</ele><time>2026-04-03T11:39:36.278Z</time></trkpt><trkpt lat="45.714315" lon="8.5118617"><ele>384.0</ele><time>2026-04-03T11:39:38.279Z</time></trkpt><trkpt lat="45.714295" lon="8.511775"><ele>383.4285714285714</ele><time>2026-04-03T11:39:40.278Z</time></trkpt><trkpt lat="45.7142733" lon="8.511685"><ele>382.85714285714283</ele><time>2026-04-03T11:39:42.281Z</time></trkpt><trkpt lat="45.7142533" lon="8.5115833"><ele>382.2857142857143</ele><time>2026-04-03T11:39:44.273Z</time></trkpt><trkpt lat="45.71424" lon="8.5114833"><ele>381.71428571428567</ele><time>2026-04-03T11:39:46.276Z</time></trkpt><trkpt lat="45.71423" lon="8.51138"><ele>381.14285714285717</ele><time>2026-04-03T11:39:48.275Z</time></trkpt><trkpt lat="45.7142183" lon="8.51129"><ele>380.57142857142856</ele><time>2026-04-03T11:39:50.28Z</time></trkpt><trkpt lat="45.7141983" lon="8.5111967"><ele>380.0</ele><time>2026-04-03T11:39:52.28Z</time></trkpt><trkpt lat="45.7141867" lon="8.5111"><ele>380.0</ele><time>2026-04-03T11:39:54.282Z</time></trkpt><trkpt lat="45.714165" lon="8.5110017"><ele>380.0</ele><time>2026-04-03T11:39:56.28Z</time></trkpt><trkpt lat="45.7141367" lon="8.5109067"><ele>380.0</ele><time>2026-04-03T11:39:58.278Z</time></trkpt><trkpt lat="45.71411" lon="8.51082"><ele>380.0</ele><time>2026-04-03T11:40:00.281Z</time></trkpt><trkpt lat="45.7140783" lon="8.51074"><ele>380.0</ele><time>2026-04-03T11:40:02.277Z</time></trkpt><trkpt lat="45.7140483" lon="8.5106567"><ele>380.0</ele><time>2026-04-03T11:40:04.28Z</time></trkpt><trkpt lat="45.7140317" lon="8.5105683"><ele>380.0</ele><time>2026-04-03T11:40:06.281Z</time></trkpt><trkpt lat="45.7140117" lon="8.5104817"><ele>380.7142857142857</ele><time>2026-04-03T11:40:08.28Z</time></trkpt><trkpt lat="45.7139683" lon="8.5104017"><ele>381.42857142857144</ele><time>2026-04-03T11:40:10.279Z</time></trkpt><trkpt lat="45.71393" lon="8.510315"><ele>382.1428571428571</ele><time>2026-04-03T11:40:12.279Z</time></trkpt><trkpt lat="45.7138933" lon="8.5102283"><ele>382.8571428571429</ele><time>2026-04-03T11:40:14.28Z</time></trkpt><trkpt lat="45.71386" lon="8.510135"><ele>383.57142857142856</ele><time>2026-04-03T11:40:16.278Z</time></trkpt><trkpt lat="45.71383" lon="8.5100533"><ele>384.2857142857143</ele><time>2026-04-03T11:40:18.284Z</time></trkpt><trkpt lat="45.713795" lon="8.5099783"><ele>385.0</ele><time>2026-04-03T11:40:20.281Z</time></trkpt><trkpt lat="45.71376" lon="8.5098983"><ele>385.0</ele><time>2026-04-03T11:40:22.281Z</time></trkpt><trkpt lat="45.7137267" lon="8.50982"><ele>385.0</ele><time>2026-04-03T11:40:24.279Z</time></trkpt><trkpt lat="45.713685" lon="8.509735"><ele>385.0</ele><time>2026-04-03T11:40:26.279Z</time></trkpt><trkpt lat="45.7136417" lon="8.50965"><ele>385.0</ele><time>2026-04-03T11:40:28.276Z</time></trkpt><trkpt lat="45.7136017" lon="8.5095717"><ele>385.0</ele><time>2026-04-03T11:40:30.279Z</time></trkpt><trkpt lat="45.713565" lon="8.5094883"><ele>385.0</ele><time>2026-04-03T11:40:32.28Z</time></trkpt><trkpt lat="45.71354" lon="8.509405"><ele>385.0</ele><time>2026-04-03T11:40:34.279Z</time></trkpt><trkpt lat="45.7135067" lon="8.5092883"><ele>385.6666666666667</ele><time>2026-04-03T11:40:37.281Z</time></trkpt><trkpt lat="45.713475" lon="8.50921"><ele>386.33333333333337</ele><time>2026-04-03T11:40:39.279Z</time></trkpt><trkpt lat="45.7134433" lon="8.50913"><ele>387.0</ele><time>2026-04-03T11:40:41.278Z</time></trkpt><trkpt lat="45.713415" lon="8.50902"><ele>387.66666666666663</ele><time>2026-04-03T11:40:44.279Z</time></trkpt><trkpt lat="45.7134067" lon="8.5089067"><ele>388.3333333333333</ele><time>2026-04-03T11:40:48.279Z</time></trkpt><trkpt lat="45.7133867" lon="8.5087917"><ele>389.0</ele><time>2026-04-03T11:40:52.276Z</time></trkpt><trkpt lat="45.7133733" lon="8.5086817"><ele>389.3333333333333</ele><time>2026-04-03T11:40:56.279Z</time></trkpt><trkpt lat="45.7133733" lon="8.5085733"><ele>389.66666666666663</ele><time>2026-04-03T11:40:59.279Z</time></trkpt><trkpt lat="45.7133483" lon="8.50848"><ele>390.0</ele><time>2026-04-03T11:41:02.28Z</time></trkpt><trkpt lat="45.7133433" lon="8.50838"><ele>390.33333333333337</ele><time>2026-04-03T11:41:05.278Z</time></trkpt><trkpt lat="45.71332" lon="8.508275"><ele>390.6666666666667</ele><time>2026-04-03T11:41:09.28Z</time></trkpt><trkpt lat="45.7133083" lon="8.50818"><ele>391.0</ele><time>2026-04-03T11:41:13.277Z</time></trkpt><trkpt lat="45.7132867" lon="8.5079267"><ele>391.00000000000006</ele><time>2026-04-03T11:41:20.28Z</time></trkpt><trkpt lat="45.7132717" lon="8.5078167"><ele>391.0</ele><time>2026-04-03T11:41:22.273Z</time></trkpt><trkpt lat="45.7132467" lon="8.5076967"><ele>391.0</ele><time>2026-04-03T11:41:24.277Z</time></trkpt><trkpt lat="45.7131983" lon="8.5076383"><ele>391.0</ele><time>2026-04-03T11:41:27.279Z</time></trkpt><trkpt lat="45.7131383" lon="8.5076033"><ele>391.00000000000006</ele><time>2026-04-03T11:41:29.278Z</time></trkpt><trkpt lat="45.7130583" lon="8.5075717"><ele>391.0</ele><time>2026-04-03T11:41:31.277Z</time></trkpt><trkpt lat="45.7129767" lon="8.50754"><ele>391.0</ele><time>2026-04-03T11:41:33.278Z</time></trkpt><trkpt lat="45.7128783" lon="8.507495"><ele>391.0</ele><time>2026-04-03T11:41:35.281Z</time></trkpt><trkpt lat="45.71278" lon="8.50744"><ele>391.0</ele><time>2026-04-03T11:41:37.279Z</time></trkpt><trkpt lat="45.7126833" lon="8.5073883"><ele>391.0</ele><time>2026-04-03T11:41:39.276Z</time></trkpt><trkpt lat="45.7126" lon="8.507325"><ele>391.0</ele><time>2026-04-03T11:41:41.278Z</time></trkpt><trkpt lat="45.7125167" lon="8.5072867"><ele>390.8</ele><time>2026-04-03T11:41:43.277Z</time></trkpt><trkpt lat="45.712435" lon="8.5072683"><ele>390.6</ele><time>2026-04-03T11:41:45.277Z</time></trkpt><trkpt lat="45.71235" lon="8.5072483"><ele>390.4</ele><time>2026-04-03T11:41:47.279Z</time></trkpt><trkpt lat="45.7122583" lon="8.5072417"><ele>390.2</ele><time>2026-04-03T11:41:49.279Z</time></trkpt><trkpt lat="45.7121533" lon="8.50723"><ele>390.0</ele><time>2026-04-03T11:41:51.277Z</time></trkpt><trkpt lat="45.7120383" lon="8.5072083"><ele>390.0</ele><time>2026-04-03T11:41:53.278Z</time></trkpt><trkpt lat="45.7119183" lon="8.5072017"><ele>390.0</ele><time>2026-04-03T11:41:55.278Z</time></trkpt><trkpt lat="45.7118017" lon="8.5072067"><ele>390.0</ele><time>2026-04-03T11:41:57.277Z</time></trkpt><trkpt lat="45.7116817" lon="8.50719"><ele>390.0</ele><time>2026-04-03T11:41:59.277Z</time></trkpt><trkpt lat="45.7116133" lon="8.507165"><ele>390.0</ele><time>2026-04-03T11:42:00.278Z</time></trkpt><trkpt lat="45.711545" lon="8.5071317"><ele>388.4</ele><time>2026-04-03T11:42:01.279Z</time></trkpt><trkpt lat="45.7114317" lon="8.50707"><ele>386.8</ele><time>2026-04-03T11:42:03.276Z</time></trkpt><trkpt lat="45.7113733" lon="8.507035"><ele>385.20000000000005</ele><time>2026-04-03T11:42:04.278Z</time></trkpt><trkpt lat="45.7113117" lon="8.5069967"><ele>383.6</ele><time>2026-04-03T11:42:05.276Z</time></trkpt><trkpt lat="45.711205" lon="8.5069217"><ele>382.0</ele><time>2026-04-03T11:42:07.283Z</time></trkpt><trkpt lat="45.7111133" lon="8.50686"><ele>382.0</ele><time>2026-04-03T11:42:09.282Z</time></trkpt><trkpt lat="45.711035" lon="8.50679"><ele>382.0</ele><time>2026-04-03T11:42:11.279Z</time></trkpt><trkpt lat="45.7110033" lon="8.5066917"><ele>382.0</ele><time>2026-04-03T11:42:13.28Z</time></trkpt><trkpt lat="45.711095" lon="8.5066233"><ele>382.0</ele><time>2026-04-03T11:42:16.282Z</time></trkpt><trkpt lat="45.711165" lon="8.506575"><ele>382.0</ele><time>2026-04-03T11:42:18.277Z</time></trkpt><trkpt lat="45.7112317" lon="8.5065183"><ele>382.0</ele><time>2026-04-03T11:42:20.279Z</time></trkpt><trkpt lat="45.7112983" lon="8.506475"><ele>382.0</ele><time>2026-04-03T11:42:22.277Z</time></trkpt><trkpt lat="45.7113717" lon="8.5064283"><ele>382.0</ele><time>2026-04-03T11:42:24.276Z</time></trkpt><trkpt lat="45.711445" lon="8.5063767"><ele>382.0</ele><time>2026-04-03T11:42:26.283Z</time></trkpt><trkpt lat="45.7115117" lon="8.5063183"><ele>382.0</ele><time>2026-04-03T11:42:28.28Z</time></trkpt><trkpt lat="45.7115783" lon="8.5062567"><ele>382.0</ele><time>2026-04-03T11:42:30.279Z</time></trkpt><trkpt lat="45.7116417" lon="8.5061917"><ele>382.0</ele><time>2026-04-03T11:42:32.279Z</time></trkpt><trkpt lat="45.7116983" lon="8.5061267"><ele>382.0</ele><time>2026-04-03T11:42:34.28Z</time></trkpt><trkpt lat="45.711755" lon="8.506055"><ele>382.0</ele><time>2026-04-03T11:42:36.279Z</time></trkpt><trkpt lat="45.7118167" lon="8.5059983"><ele>382.0</ele><time>2026-04-03T11:42:38.279Z</time></trkpt><trkpt lat="45.711885" lon="8.5059383"><ele>382.0</ele><time>2026-04-03T11:42:40.278Z</time></trkpt><trkpt lat="45.7119483" lon="8.5058767"><ele>382.0</ele><time>2026-04-03T11:42:42.278Z</time></trkpt><trkpt lat="45.7120117" lon="8.505815"><ele>382.0</ele><time>2026-04-03T11:42:44.283Z</time></trkpt><trkpt lat="45.7120783" lon="8.5057667"><ele>382.0</ele><time>2026-04-03T11:42:46.277Z</time></trkpt><trkpt lat="45.712145" lon="8.5057183"><ele>382.0</ele><time>2026-04-03T11:42:48.278Z</time></trkpt><trkpt lat="45.7122183" lon="8.5056683"><ele>382.0</ele><time>2026-04-03T11:42:50.281Z</time></trkpt><trkpt lat="45.71229" lon="8.5056283"><ele>382.0</ele><time>2026-04-03T11:42:52.277Z</time></trkpt><trkpt lat="45.7123583" lon="8.5055867"><ele>382.0</ele><time>2026-04-03T11:42:54.279Z</time></trkpt><trkpt lat="45.71242" lon="8.5055467"><ele>382.0</ele><time>2026-04-03T11:42:56.278Z</time></trkpt><trkpt lat="45.712495" lon="8.50549"><ele>382.0</ele><time>2026-04-03T11:42:59.28Z</time></trkpt><trkpt lat="45.7125633" lon="8.5054217"><ele>382.0</ele><time>2026-04-03T11:43:02.28Z</time></trkpt><trkpt lat="45.712645" lon="8.5053667"><ele>382.0</ele><time>2026-04-03T11:43:05.279Z</time></trkpt><trkpt lat="45.71272" lon="8.5053133"><ele>382.0</ele><time>2026-04-03T11:43:08.278Z</time></trkpt><trkpt lat="45.7127967" lon="8.5052567"><ele>382.0</ele><time>2026-04-03T11:43:11.28Z</time></trkpt><trkpt lat="45.7128567" lon="8.5052083"><ele>382.0</ele><time>2026-04-03T11:43:13.283Z</time></trkpt><trkpt lat="45.7129167" lon="8.5051617"><ele>381.66666666666663</ele><time>2026-04-03T11:43:15.277Z</time></trkpt><trkpt lat="45.71298" lon="8.5051133"><ele>381.3333333333333</ele><time>2026-04-03T11:43:17.279Z</time></trkpt><trkpt lat="45.71304" lon="8.505065"><ele>381.0</ele><time>2026-04-03T11:43:19.28Z</time></trkpt><trkpt lat="45.71312" lon="8.505"><ele>380.6666666666667</ele><time>2026-04-03T11:43:22.278Z</time></trkpt><trkpt lat="45.713195" lon="8.50493"><ele>380.33333333333337</ele><time>2026-04-03T11:43:25.28Z</time></trkpt><trkpt lat="45.71327" lon="8.5048583"><ele>380.0</ele><time>2026-04-03T11:43:28.278Z</time></trkpt><trkpt lat="45.7133267" lon="8.5048083"><ele>380.0</ele><time>2026-04-03T11:43:30.279Z</time></trkpt><trkpt lat="45.713375" lon="8.50475"><ele>380.0</ele><time>2026-04-03T11:43:32.273Z</time></trkpt><trkpt lat="45.7134483" lon="8.5046933"><ele>380.0</ele><time>2026-04-03T11:43:35.283Z</time></trkpt><trkpt lat="45.7135167" lon="8.5046217"><ele>380.0</ele><time>2026-04-03T11:43:38.271Z</time></trkpt><trkpt lat="45.7135817" lon="8.504565"><ele>380.0</ele><time>2026-04-03T11:43:41.271Z</time></trkpt><trkpt lat="45.7136633" lon="8.5044917"><ele>380.0</ele><time>2026-04-03T11:43:43.274Z</time></trkpt><trkpt lat="45.7137517" lon="8.504405"><ele>379.6666666666667</ele><time>2026-04-03T11:43:45.273Z</time></trkpt><trkpt lat="45.71381" lon="8.50434"><ele>379.33333333333337</ele><time>2026-04-03T11:43:46.271Z</time></trkpt><trkpt lat="45.7138667" lon="8.5042833"><ele>379.0</ele><time>2026-04-03T11:43:47.273Z</time></trkpt><trkpt lat="45.713925" lon="8.50423"><ele>378.6666666666667</ele><time>2026-04-03T11:43:48.275Z</time></trkpt><trkpt lat="45.71398" lon="8.5041817"><ele>378.3333333333333</ele><time>2026-04-03T11:43:49.275Z</time></trkpt><trkpt lat="45.714035" lon="8.504135"><ele>378.0</ele><time>2026-04-03T11:43:50.273Z</time></trkpt><trkpt lat="45.71413" lon="8.50405"><ele>378.0</ele><time>2026-04-03T11:43:52.279Z</time></trkpt><trkpt lat="45.7142117" lon="8.5039817"><ele>378.0</ele><time>2026-04-03T11:43:54.276Z</time></trkpt><trkpt lat="45.7142783" lon="8.50393"><ele>378.0</ele><time>2026-04-03T11:43:56.279Z</time></trkpt><trkpt lat="45.7143417" lon="8.50387"><ele>378.0</ele><time>2026-04-03T11:44:23.279Z</time></trkpt><trkpt lat="45.7143617" lon="8.5037483"><ele>378.0</ele><time>2026-04-03T11:44:33.279Z</time></trkpt><trkpt lat="45.714345" lon="8.5036483"><ele>378.0</ele><time>2026-04-03T11:44:36.273Z</time></trkpt><trkpt lat="45.7143367" lon="8.503535"><ele>377.1666666666667</ele><time>2026-04-03T11:44:38.28Z</time></trkpt><trkpt lat="45.7143133" lon="8.5034"><ele>376.3333333333333</ele><time>2026-04-03T11:44:40.278Z</time></trkpt><trkpt lat="45.7142917" lon="8.5032583"><ele>375.5</ele><time>2026-04-03T11:44:42.278Z</time></trkpt><trkpt lat="45.714265" lon="8.503095"><ele>374.66666666666663</ele><time>2026-04-03T11:44:44.278Z</time></trkpt><trkpt lat="45.7142617" lon="8.5030033"><ele>373.8333333333333</ele><time>2026-04-03T11:44:45.279Z</time></trkpt><trkpt lat="45.714235" lon="8.502915"><ele>373.0</ele><time>2026-04-03T11:44:46.279Z</time></trkpt><trkpt lat="45.7142283" lon="8.5028183"><ele>372.3333333333333</ele><time>2026-04-03T11:44:47.278Z</time></trkpt><trkpt lat="45.7142083" lon="8.5027233"><ele>371.66666666666663</ele><time>2026-04-03T11:44:48.279Z</time></trkpt><trkpt lat="45.7142" lon="8.50262"><ele>371.0</ele><time>2026-04-03T11:44:49.279Z</time></trkpt><trkpt lat="45.7142" lon="8.50251"><ele>370.3333333333333</ele><time>2026-04-03T11:44:50.279Z</time></trkpt><trkpt lat="45.714185" lon="8.5023983"><ele>369.6666666666667</ele><time>2026-04-03T11:44:51.278Z</time></trkpt><trkpt lat="45.7141683" lon="8.502285"><ele>369.0</ele><time>2026-04-03T11:44:52.28Z</time></trkpt><trkpt lat="45.7141717" lon="8.5021667"><ele>368.1666666666667</ele><time>2026-04-03T11:44:53.276Z</time></trkpt><trkpt lat="45.7141683" lon="8.5020467"><ele>367.3333333333333</ele><time>2026-04-03T11:44:54.278Z</time></trkpt><trkpt lat="45.7141667" lon="8.5019233"><ele>366.5</ele><time>2026-04-03T11:44:55.278Z</time></trkpt><trkpt lat="45.714165" lon="8.5017983"><ele>365.66666666666663</ele><time>2026-04-03T11:44:56.278Z</time></trkpt><trkpt lat="45.714165" lon="8.5016717"><ele>364.8333333333333</ele><time>2026-04-03T11:44:57.274Z</time></trkpt><trkpt lat="45.714165" lon="8.5015467"><ele>364.0</ele><time>2026-04-03T11:44:58.277Z</time></trkpt><trkpt lat="45.7141617" lon="8.5014217"><ele>364.0</ele><time>2026-04-03T11:44:59.276Z</time></trkpt><trkpt lat="45.7141567" lon="8.5012967"><ele>364.0</ele><time>2026-04-03T11:45:00.279Z</time></trkpt><trkpt lat="45.714155" lon="8.5011733"><ele>364.0</ele><time>2026-04-03T11:45:01.277Z</time></trkpt><trkpt lat="45.7141533" lon="8.5010533"><ele>364.0</ele><time>2026-04-03T11:45:02.277Z</time></trkpt><trkpt lat="45.7141533" lon="8.50094"><ele>364.0</ele><time>2026-04-03T11:45:03.279Z</time></trkpt><trkpt lat="45.7141483" lon="8.50083"><ele>364.0</ele><time>2026-04-03T11:45:04.275Z</time></trkpt><trkpt lat="45.7141433" lon="8.5007233"><ele>363.57142857142856</ele><time>2026-04-03T11:45:05.276Z</time></trkpt><trkpt lat="45.71414" lon="8.5006183"><ele>363.1428571428571</ele><time>2026-04-03T11:45:06.282Z</time></trkpt><trkpt lat="45.7141383" lon="8.5005133"><ele>362.7142857142857</ele><time>2026-04-03T11:45:07.279Z</time></trkpt><trkpt lat="45.7141367" lon="8.50041"><ele>362.2857142857143</ele><time>2026-04-03T11:45:08.276Z</time></trkpt><trkpt lat="45.7141383" lon="8.5003067"><ele>361.85714285714283</ele><time>2026-04-03T11:45:09.278Z</time></trkpt><trkpt lat="45.714135" lon="8.500205"><ele>361.42857142857144</ele><time>2026-04-03T11:45:10.279Z</time></trkpt><trkpt lat="45.7141317" lon="8.50011"><ele>361.0</ele><time>2026-04-03T11:45:11.272Z</time></trkpt><trkpt lat="45.71412" lon="8.4999483"><ele>360.66666666666663</ele><time>2026-04-03T11:45:13.277Z</time></trkpt><trkpt lat="45.7141167" lon="8.4998"><ele>360.3333333333333</ele><time>2026-04-03T11:45:15.277Z</time></trkpt><trkpt lat="45.7141333" lon="8.49965"><ele>360.0</ele><time>2026-04-03T11:45:17.276Z</time></trkpt><trkpt lat="45.7141617" lon="8.499555"><ele>359.6666666666667</ele><time>2026-04-03T11:45:19.278Z</time></trkpt><trkpt lat="45.714235" lon="8.4996233"><ele>359.33333333333337</ele><time>2026-04-03T11:45:23.28Z</time></trkpt><trkpt lat="45.7142933" lon="8.4996867"><ele>359.0</ele><time>2026-04-03T11:45:25.28Z</time></trkpt><trkpt lat="45.7143383" lon="8.4997517"><ele>359.0</ele><time>2026-04-03T11:45:27.279Z</time></trkpt><trkpt lat="45.7143933" lon="8.4998117"><ele>359.0</ele><time>2026-04-03T11:45:29.279Z</time></trkpt><trkpt lat="45.71446" lon="8.4999117"><ele>359.0</ele><time>2026-04-03T11:45:32.278Z</time></trkpt><trkpt lat="45.7144983" lon="8.49999"><ele>359.0</ele><time>2026-04-03T11:45:34.275Z</time></trkpt><trkpt lat="45.71454" lon="8.5000633"><ele>359.0</ele><time>2026-04-03T11:45:36.283Z</time></trkpt><trkpt lat="45.7145867" lon="8.5001683"><ele>359.0</ele><time>2026-04-03T11:45:39.28Z</time></trkpt><trkpt lat="45.7146383" lon="8.5002617"><ele>359.0</ele><time>2026-04-03T11:45:42.277Z</time></trkpt><trkpt lat="45.7146917" lon="8.5003567"><ele>359.0</ele><time>2026-04-03T11:45:45.278Z</time></trkpt><trkpt lat="45.7147333" lon="8.5004533"><ele>359.0</ele><time>2026-04-03T11:45:48.278Z</time></trkpt><trkpt lat="45.71478" lon="8.5005683"><ele>359.0</ele><time>2026-04-03T11:45:51.28Z</time></trkpt><trkpt lat="45.7148133" lon="8.5006683"><ele>359.0</ele><time>2026-04-03T11:45:54.28Z</time></trkpt><trkpt lat="45.7148417" lon="8.5007683"><ele>359.0</ele><time>2026-04-03T11:45:57.276Z</time></trkpt><trkpt lat="45.7148733" lon="8.5008683"><ele>359.57142857142856</ele><time>2026-04-03T11:46:00.279Z</time></trkpt><trkpt lat="45.7149033" lon="8.5009767"><ele>360.14285714285717</ele><time>2026-04-03T11:46:03.277Z</time></trkpt><trkpt lat="45.7149117" lon="8.5010683"><ele>360.71428571428567</ele><time>2026-04-03T11:46:06.277Z</time></trkpt><trkpt lat="45.714925" lon="8.5011617"><ele>361.2857142857143</ele><time>2026-04-03T11:46:09.277Z</time></trkpt><trkpt lat="45.7149217" lon="8.5012767"><ele>361.85714285714283</ele><time>2026-04-03T11:46:12.284Z</time></trkpt><trkpt lat="45.7149333" lon="8.5013833"><ele>362.4285714285714</ele><time>2026-04-03T11:46:15.279Z</time></trkpt><trkpt lat="45.71493" lon="8.5014933"><ele>363.0</ele><time>2026-04-03T11:46:18.278Z</time></trkpt><trkpt lat="45.7149217" lon="8.5015933"><ele>363.5</ele><time>2026-04-03T11:46:21.278Z</time></trkpt><trkpt lat="45.714915" lon="8.5016967"><ele>364.0</ele><time>2026-04-03T11:46:24.276Z</time></trkpt><trkpt lat="45.714885" lon="8.5017883"><ele>364.5</ele><time>2026-04-03T11:46:27.278Z</time></trkpt><trkpt lat="45.7148567" lon="8.5019017"><ele>365.0</ele><time>2026-04-03T11:46:30.279Z</time></trkpt><trkpt lat="45.7148467" lon="8.5020067"><ele>365.5</ele><time>2026-04-03T11:46:33.279Z</time></trkpt><trkpt lat="45.7148417" lon="8.502115"><ele>366.0</ele><time>2026-04-03T11:46:36.279Z</time></trkpt><trkpt lat="45.7148317" lon="8.5022233"><ele>366.14285714285717</ele><time>2026-04-03T11:46:39.279Z</time></trkpt><trkpt lat="45.7148333" lon="8.5023283"><ele>366.28571428571433</ele><time>2026-04-03T11:46:42.278Z</time></trkpt><trkpt lat="45.71484" lon="8.5024317"><ele>366.42857142857144</ele><time>2026-04-03T11:46:45.277Z</time></trkpt><trkpt lat="45.71486" lon="8.5025267"><ele>366.57142857142856</ele><time>2026-04-03T11:46:48.279Z</time></trkpt><trkpt lat="45.714885" lon="8.50262"><ele>366.7142857142857</ele><time>2026-04-03T11:46:51.279Z</time></trkpt><trkpt lat="45.7148983" lon="8.5027217"><ele>366.85714285714283</ele><time>2026-04-03T11:46:54.279Z</time></trkpt><trkpt lat="45.7149183" lon="8.5028083"><ele>367.0</ele><time>2026-04-03T11:46:57.276Z</time></trkpt><trkpt lat="45.7149133" lon="8.5029083"><ele>367.66666666666663</ele><time>2026-04-03T11:47:00.284Z</time></trkpt><trkpt lat="45.7149033" lon="8.50301"><ele>368.3333333333333</ele><time>2026-04-03T11:47:03.278Z</time></trkpt><trkpt lat="45.7148983" lon="8.5031267"><ele>369.0</ele><time>2026-04-03T11:47:06.276Z</time></trkpt><trkpt lat="45.7148583" lon="8.5032233"><ele>369.6666666666667</ele><time>2026-04-03T11:47:09.278Z</time></trkpt><trkpt lat="45.7148133" lon="8.5033183"><ele>370.33333333333337</ele><time>2026-04-03T11:47:12.278Z</time></trkpt><trkpt lat="45.7147483" lon="8.503395"><ele>371.0</ele><time>2026-04-03T11:47:15.279Z</time></trkpt><trkpt lat="45.7147017" lon="8.5034817"><ele>371.0</ele><time>2026-04-03T11:47:18.28Z</time></trkpt><trkpt lat="45.7146733" lon="8.5035767"><ele>371.0</ele><time>2026-04-03T11:47:21.281Z</time></trkpt><trkpt lat="45.71464" lon="8.5036533"><ele>371.0</ele><time>2026-04-03T11:47:24.279Z</time></trkpt><trkpt lat="45.7146283" lon="8.5037683"><ele>371.0</ele><time>2026-04-03T11:47:28.278Z</time></trkpt><trkpt lat="45.7145567" lon="8.5037633"><ele>371.0</ele><time>2026-04-03T11:47:32.279Z</time></trkpt><trkpt lat="45.714495" lon="8.503735"><ele>371.0</ele><time>2026-04-03T11:47:35.273Z</time></trkpt><trkpt lat="45.7144233" lon="8.5037483"><ele>371.0</ele><time>2026-04-03T11:47:38.28Z</time></trkpt><trkpt lat="45.7143633" lon="8.5038033"><ele>372.0</ele><time>2026-04-03T11:47:41.278Z</time></trkpt><trkpt lat="45.7143067" lon="8.503865"><ele>373.0</ele><time>2026-04-03T11:47:44.28Z</time></trkpt><trkpt lat="45.7142583" lon="8.5039417"><ele>374.0</ele><time>2026-04-03T11:47:47.278Z</time></trkpt><trkpt lat="45.7141917" lon="8.5039967"><ele>375.0</ele><time>2026-04-03T11:47:50.28Z</time></trkpt><trkpt lat="45.7141217" lon="8.50405"><ele>376.0</ele><time>2026-04-03T11:47:53.278Z</time></trkpt><trkpt lat="45.7140667" lon="8.5041083"><ele>377.0</ele><time>2026-04-03T11:47:56.279Z</time></trkpt><trkpt lat="45.713995" lon="8.5041583"><ele>378.0</ele><time>2026-04-03T11:48:00.278Z</time></trkpt><trkpt lat="45.71405" lon="8.50411"><ele>378.0</ele><time>2026-04-03T11:48:08.282Z</time></trkpt><trkpt lat="45.7141283" lon="8.50405"><ele>378.0</ele><time>2026-04-03T11:48:10.277Z</time></trkpt><trkpt lat="45.71421" lon="8.5039783"><ele>378.0</ele><time>2026-04-03T11:48:12.28Z</time></trkpt><trkpt lat="45.7142983" lon="8.5039017"><ele>378.0</ele><time>2026-04-03T11:48:14.282Z</time></trkpt><trkpt lat="45.714385" lon="8.503835"><ele>378.0</ele><time>2026-04-03T11:48:16.279Z</time></trkpt><trkpt lat="45.714465" lon="8.50379"><ele>378.0</ele><time>2026-04-03T11:48:18.279Z</time></trkpt><trkpt lat="45.7145667" lon="8.5038267"><ele>378.0</ele><time>2026-04-03T11:48:20.272Z</time></trkpt><trkpt lat="45.7146667" lon="8.5039233"><ele>378.0</ele><time>2026-04-03T11:48:22.277Z</time></trkpt><trkpt lat="45.7147117" lon="8.5039933"><ele>378.0</ele><time>2026-04-03T11:48:23.274Z</time></trkpt><trkpt lat="45.7147483" lon="8.5040717"><ele>378.0</ele><time>2026-04-03T11:48:24.28Z</time></trkpt><trkpt lat="45.71617" lon="8.50687"><ele>378.5</ele><time>2026-04-03T11:51:09.279Z</time></trkpt><trkpt lat="45.7162383" lon="8.5069517"><ele>379.0</ele><time>2026-04-03T11:51:12.279Z</time></trkpt><trkpt lat="45.7163467" lon="8.5071167"><ele>379.5</ele><time>2026-04-03T11:51:18.283Z</time></trkpt><trkpt lat="45.7164483" lon="8.507235"><ele>380.0</ele><time>2026-04-03T11:51:26.28Z</time></trkpt><trkpt lat="45.71647" lon="8.5073417"><ele>381.6</ele><time>2026-04-03T11:51:29.278Z</time></trkpt><trkpt lat="45.7165067" lon="8.507415"><ele>383.2</ele><time>2026-04-03T11:51:31.278Z</time></trkpt><trkpt lat="45.7165533" lon="8.5075117"><ele>384.79999999999995</ele><time>2026-04-03T11:51:34.278Z</time></trkpt><trkpt lat="45.71664" lon="8.5077083"><ele>386.4</ele><time>2026-04-03T11:51:40.277Z</time></trkpt><trkpt lat="45.7166833" lon="8.5078133"><ele>388.0</ele><time>2026-04-03T11:51:43.277Z</time></trkpt><trkpt lat="45.71671" lon="8.5079067"><ele>388.0</ele><time>2026-04-03T11:51:46.277Z</time></trkpt><trkpt lat="45.7167433" lon="8.5079867"><ele>388.0</ele><time>2026-04-03T11:51:49.279Z</time></trkpt><trkpt lat="45.7167883" lon="8.5080617"><ele>388.0</ele><time>2026-04-03T11:51:53.28Z</time></trkpt><trkpt lat="45.71681" lon="8.5081617"><ele>388.0</ele><time>2026-04-03T11:51:58.279Z</time></trkpt></trkseg></trk></gpx>